sensor_id;sensor_type;location;lat;lon;timestamp;pressure;altitude;pressure_sealevel;temperature;humidity
27984;BME280;15317;50.360;8.726;2022-09-09T00:01:43;98930.13;;;15.39;100.00
27984;BME280;15317;50.360;8.726;2022-09-09T00:05:57;98929.91;;;15.34;100.00
27984;BME280;15317;50.360;8.726;2022-09-09T00:10:14;98929.91;;;15.34;100.00
27984;BME280;15317;50.360;8.726;2022-09-09T00:14:23;98928.41;;;15.31;100.00
27984;BME280;15317;50.360;8.726;2022-09-09T00:18:35;98924.22;;;15.35;100.00
27984;BME280;15317;50.360;8.726;2022-09-09T00:22:45;98923.59;;;15.33;100.00
27984;BME280;15317;50.360;8.726;2022-09-09T00:26:53;98913.03;;;15.30;100.00
27984;BME280;15317;50.360;8.726;2022-09-09T00:31:04;98914.34;;;15.34;100.00
27984;BME280;15317;50.360;8.726;2022-09-09T00:35:16;98912.22;;;15.36;100.00
27984;BME280;15317;50.360;8.726;2022-09-09T00:39:27;98915.59;;;15.38;100.00
27984;BME280;15317;50.360;8.726;2022-09-09T00:43:32;98908.06;;;15.47;100.00
27984;BME280;15317;50.360;8.726;2022-09-09T00:47:43;98910.34;;;15.43;100.00
27984;BME280;15317;50.360;8.726;2022-09-09T00:51:55;98911.81;;;15.39;100.00
27984;BME280;15317;50.360;8.726;2022-09-09T00:56:09;98912.66;;;15.40;100.00
27984;BME280;15317;50.360;8.726;2022-09-09T01:00:19;98920.88;;;15.40;100.00
27984;BME280;15317;50.360;8.726;2022-09-09T01:04:29;98916.44;;;15.39;100.00
27984;BME280;15317;50.360;8.726;2022-09-09T01:08:59;98917.50;;;15.38;100.00
27984;BME280;15317;50.360;8.726;2022-09-09T01:13:13;98919.81;;;15.34;100.00
27984;BME280;15317;50.360;8.726;2022-09-09T01:17:20;98914.94;;;15.30;100.00
27984;BME280;15317;50.360;8.726;2022-09-09T01:21:32;98916.38;;;15.19;100.00
27984;BME280;15317;50.360;8.726;2022-09-09T01:26:04;98917.19;;;15.13;100.00
27984;BME280;15317;50.360;8.726;2022-09-09T01:30:11;98918.00;;;15.07;100.00
27984;BME280;15317;50.360;8.726;2022-09-09T01:34:15;98925.94;;;15.02;100.00
27984;BME280;15317;50.360;8.726;2022-09-09T01:38:17;98925.09;;;15.01;100.00
27984;BME280;15317;50.360;8.726;2022-09-09T01:42:21;98921.75;;;14.99;100.00
27984;BME280;15317;50.360;8.726;2022-09-09T01:46:23;98918.75;;;14.94;100.00
27984;BME280;15317;50.360;8.726;2022-09-09T01:50:26;98919.59;;;14.95;100.00
27984;BME280;15317;50.360;8.726;2022-09-09T01:54:31;98922.75;;;14.92;100.00
27984;BME280;15317;50.360;8.726;2022-09-09T01:58:50;98921.06;;;14.91;100.00
27984;BME280;15317;50.360;8.726;2022-09-09T02:03:00;98925.44;;;14.85;100.00
27984;BME280;15317;50.360;8.726;2022-09-09T02:07:15;98920.97;;;14.78;100.00
27984;BME280;15317;50.360;8.726;2022-09-09T02:11:22;98918.63;;;14.75;100.00
27984;BME280;15317;50.360;8.726;2022-09-09T02:15:30;98931.66;;;14.73;100.00
27984;BME280;15317;50.360;8.726;2022-09-09T02:19:37;98935.44;;;14.72;100.00
27984;BME280;15317;50.360;8.726;2022-09-09T02:23:42;98924.06;;;14.68;100.00
27984;BME280;15317;50.360;8.726;2022-09-09T02:27:45;98914.16;;;14.67;100.00
27984;BME280;15317;50.360;8.726;2022-09-09T02:31:51;98916.69;;;14.69;100.00
27984;BME280;15317;50.360;8.726;2022-09-09T02:35:56;98915.66;;;14.70;100.00
27984;BME280;15317;50.360;8.726;2022-09-09T02:40:05;98914.81;;;14.69;100.00
27984;BME280;15317;50.360;8.726;2022-09-09T02:44:09;98918.19;;;14.71;100.00
27984;BME280;15317;50.360;8.726;2022-09-09T02:48:16;98929.31;;;14.70;100.00
27984;BME280;15317;50.360;8.726;2022-09-09T02:52:24;98932.09;;;14.76;100.00
27984;BME280;15317;50.360;8.726;2022-09-09T02:56:31;98926.44;;;14.78;100.00
27984;BME280;15317;50.360;8.726;2022-09-09T03:00:35;98924.34;;;14.80;100.00
27984;BME280;15317;50.360;8.726;2022-09-09T03:04:39;98922.91;;;14.84;100.00
27984;BME280;15317;50.360;8.726;2022-09-09T03:08:42;98921.91;;;14.91;100.00
27984;BME280;15317;50.360;8.726;2022-09-09T03:12:44;98922.59;;;15.00;100.00
27984;BME280;15317;50.360;8.726;2022-09-09T03:16:46;98926.16;;;15.00;100.00
27984;BME280;15317;50.360;8.726;2022-09-09T03:20:50;98920.03;;;14.98;100.00
27984;BME280;15317;50.360;8.726;2022-09-09T03:24:53;98908.66;;;14.95;100.00
27984;BME280;15317;50.360;8.726;2022-09-09T03:28:55;98904.84;;;14.89;100.00
27984;BME280;15317;50.360;8.726;2022-09-09T03:32:57;98899.53;;;14.81;100.00
27984;BME280;15317;50.360;8.726;2022-09-09T03:37:00;98899.94;;;14.78;100.00
27984;BME280;15317;50.360;8.726;2022-09-09T03:41:03;98897.22;;;14.78;100.00
27984;BME280;15317;50.360;8.726;2022-09-09T03:45:11;98904.41;;;14.86;100.00
27984;BME280;15317;50.360;8.726;2022-09-09T03:49:13;98894.72;;;14.83;100.00
27984;BME280;15317;50.360;8.726;2022-09-09T03:53:18;98896.63;;;14.89;100.00
27984;BME280;15317;50.360;8.726;2022-09-09T03:57:21;98902.09;;;14.89;100.00
27984;BME280;15317;50.360;8.726;2022-09-09T04:01:23;98901.75;;;14.99;100.00
27984;BME280;15317;50.360;8.726;2022-09-09T04:05:25;98896.13;;;15.07;100.00
27984;BME280;15317;50.360;8.726;2022-09-09T04:09:28;98895.91;;;15.15;100.00
27984;BME280;15317;50.360;8.726;2022-09-09T04:13:30;98907.13;;;15.20;100.00
27984;BME280;15317;50.360;8.726;2022-09-09T04:17:32;98906.72;;;15.30;100.00
27984;BME280;15317;50.360;8.726;2022-09-09T04:21:34;98885.69;;;15.37;100.00
27984;BME280;15317;50.360;8.726;2022-09-09T04:25:43;98892.25;;;15.42;100.00
27984;BME280;15317;50.360;8.726;2022-09-09T04:29:45;98888.28;;;15.52;100.00
27984;BME280;15317;50.360;8.726;2022-09-09T04:33:47;98882.22;;;15.63;100.00
27984;BME280;15317;50.360;8.726;2022-09-09T04:37:50;98891.28;;;15.70;100.00
27984;BME280;15317;50.360;8.726;2022-09-09T04:41:53;98894.69;;;15.72;100.00
27984;BME280;15317;50.360;8.726;2022-09-09T04:45:57;98888.38;;;15.78;100.00
27984;BME280;15317;50.360;8.726;2022-09-09T04:49:59;98894.50;;;15.80;100.00
27984;BME280;15317;50.360;8.726;2022-09-09T04:54:02;98892.63;;;15.87;100.00
27984;BME280;15317;50.360;8.726;2022-09-09T04:58:06;98910.31;;;15.91;100.00
27984;BME280;15317;50.360;8.726;2022-09-09T05:02:08;98905.47;;;15.93;100.00
27984;BME280;15317;50.360;8.726;2022-09-09T05:06:12;98909.91;;;15.94;100.00
27984;BME280;15317;50.360;8.726;2022-09-09T05:10:14;98921.06;;;15.99;100.00
27984;BME280;15317;50.360;8.726;2022-09-09T05:14:20;98930.97;;;16.00;100.00
27984;BME280;15317;50.360;8.726;2022-09-09T05:18:22;98920.22;;;15.99;100.00
27984;BME280;15317;50.360;8.726;2022-09-09T05:22:24;98924.25;;;15.96;100.00
27984;BME280;15317;50.360;8.726;2022-09-09T05:26:26;98920.41;;;15.97;100.00
27984;BME280;15317;50.360;8.726;2022-09-09T05:30:31;98934.13;;;15.97;100.00
27984;BME280;15317;50.360;8.726;2022-09-09T05:34:33;98942.13;;;15.99;100.00
27984;BME280;15317;50.360;8.726;2022-09-09T05:38:35;98952.25;;;15.98;100.00
27984;BME280;15317;50.360;8.726;2022-09-09T05:42:38;98951.81;;;15.88;100.00
27984;BME280;15317;50.360;8.726;2022-09-09T05:46:42;98955.38;;;15.82;100.00
27984;BME280;15317;50.360;8.726;2022-09-09T05:50:52;98958.78;;;15.97;100.00
27984;BME280;15317;50.360;8.726;2022-09-09T05:54:54;98959.22;;;16.07;100.00
27984;BME280;15317;50.360;8.726;2022-09-09T05:58:57;98973.09;;;15.93;100.00
27984;BME280;15317;50.360;8.726;2022-09-09T06:03:02;98977.72;;;15.86;100.00
27984;BME280;15317;50.360;8.726;2022-09-09T06:07:04;98973.28;;;15.85;100.00
27984;BME280;15317;50.360;8.726;2022-09-09T06:11:08;98980.25;;;15.87;100.00
27984;BME280;15317;50.360;8.726;2022-09-09T06:15:11;98979.03;;;15.96;100.00
27984;BME280;15317;50.360;8.726;2022-09-09T06:19:14;98982.81;;;16.02;100.00
27984;BME280;15317;50.360;8.726;2022-09-09T06:23:16;98984.09;;;16.12;100.00
27984;BME280;15317;50.360;8.726;2022-09-09T06:27:19;98988.75;;;16.32;100.00
27984;BME280;15317;50.360;8.726;2022-09-09T06:31:23;98985.22;;;16.51;100.00
27984;BME280;15317;50.360;8.726;2022-09-09T06:35:26;98989.22;;;16.42;100.00
27984;BME280;15317;50.360;8.726;2022-09-09T06:39:29;98990.91;;;16.56;100.00
27984;BME280;15317;50.360;8.726;2022-09-09T06:43:32;98983.31;;;16.58;100.00
27984;BME280;15317;50.360;8.726;2022-09-09T06:47:34;98988.00;;;16.64;100.00
27984;BME280;15317;50.360;8.726;2022-09-09T06:51:37;98991.56;;;16.58;100.00
27984;BME280;15317;50.360;8.726;2022-09-09T06:55:43;98997.25;;;16.89;100.00
27984;BME280;15317;50.360;8.726;2022-09-09T06:59:45;98998.28;;;17.15;100.00
27984;BME280;15317;50.360;8.726;2022-09-09T07:03:49;98992.59;;;17.10;100.00
27984;BME280;15317;50.360;8.726;2022-09-09T07:07:53;98997.25;;;17.03;100.00
27984;BME280;15317;50.360;8.726;2022-09-09T07:11:55;99012.22;;;16.87;100.00
27984;BME280;15317;50.360;8.726;2022-09-09T07:16:04;99002.31;;;16.86;100.00
27984;BME280;15317;50.360;8.726;2022-09-09T07:20:06;99011.59;;;16.98;100.00
27984;BME280;15317;50.360;8.726;2022-09-09T07:24:10;98993.88;;;16.87;100.00
27984;BME280;15317;50.360;8.726;2022-09-09T07:28:12;98996.81;;;16.92;100.00
27984;BME280;15317;50.360;8.726;2022-09-09T07:32:14;99000.19;;;17.08;100.00
27984;BME280;15317;50.360;8.726;2022-09-09T07:36:19;99004.81;;;17.14;100.00
27984;BME280;15317;50.360;8.726;2022-09-09T07:40:23;99015.16;;;17.25;100.00
27984;BME280;15317;50.360;8.726;2022-09-09T07:44:26;99007.97;;;17.24;100.00
27984;BME280;15317;50.360;8.726;2022-09-09T07:48:28;99023.41;;;17.12;100.00
27984;BME280;15317;50.360;8.726;2022-09-09T07:52:31;99020.66;;;17.12;100.00
27984;BME280;15317;50.360;8.726;2022-09-09T07:56:35;99017.91;;;17.25;100.00
27984;BME280;15317;50.360;8.726;2022-09-09T08:00:37;99030.13;;;17.29;100.00
27984;BME280;15317;50.360;8.726;2022-09-09T08:04:44;99026.72;;;17.47;100.00
27984;BME280;15317;50.360;8.726;2022-09-09T08:08:50;99030.56;;;17.26;100.00
27984;BME280;15317;50.360;8.726;2022-09-09T08:12:54;99039.63;;;17.40;100.00
27984;BME280;15317;50.360;8.726;2022-09-09T08:16:56;99037.09;;;17.31;100.00
27984;BME280;15317;50.360;8.726;2022-09-09T08:20:58;99044.00;;;17.47;100.00
27984;BME280;15317;50.360;8.726;2022-09-09T08:25:02;99040.22;;;17.61;98.60
27984;BME280;15317;50.360;8.726;2022-09-09T08:29:09;99041.78;;;17.95;97.18
27984;BME280;15317;50.360;8.726;2022-09-09T08:33:12;99039.19;;;18.07;93.98
27984;BME280;15317;50.360;8.726;2022-09-09T08:37:14;99048.22;;;18.21;94.31
27984;BME280;15317;50.360;8.726;2022-09-09T08:41:30;99044.25;;;18.10;93.16
27984;BME280;15317;50.360;8.726;2022-09-09T08:45:43;99043.47;;;17.96;94.51
27984;BME280;15317;50.360;8.726;2022-09-09T08:50:02;99039.00;;;18.02;93.64
27984;BME280;15317;50.360;8.726;2022-09-09T08:54:08;99042.53;;;18.09;94.82
27984;BME280;15317;50.360;8.726;2022-09-09T08:58:14;99035.50;;;18.26;93.25
27984;BME280;15317;50.360;8.726;2022-09-09T09:02:21;99037.28;;;18.45;89.66
27984;BME280;15317;50.360;8.726;2022-09-09T09:06:35;99045.38;;;18.72;89.02
27984;BME280;15317;50.360;8.726;2022-09-09T09:10:46;99043.19;;;18.56;87.87
27984;BME280;15317;50.360;8.726;2022-09-09T09:14:49;99044.00;;;18.49;87.52
27984;BME280;15317;50.360;8.726;2022-09-09T09:18:53;99051.34;;;18.24;89.47
27984;BME280;15317;50.360;8.726;2022-09-09T09:22:59;99049.50;;;18.18;91.76
27984;BME280;15317;50.360;8.726;2022-09-09T09:27:12;99065.13;;;17.66;100.00
27984;BME280;15317;50.360;8.726;2022-09-09T09:31:14;99061.38;;;17.28;100.00
27984;BME280;15317;50.360;8.726;2022-09-09T09:35:17;99054.22;;;16.94;100.00
27984;BME280;15317;50.360;8.726;2022-09-09T09:39:25;99059.28;;;16.90;100.00
27984;BME280;15317;50.360;8.726;2022-09-09T09:43:28;99042.41;;;16.74;100.00
27984;BME280;15317;50.360;8.726;2022-09-09T09:47:31;99059.28;;;16.64;100.00
27984;BME280;15317;50.360;8.726;2022-09-09T09:51:34;99049.56;;;16.62;100.00
27984;BME280;15317;50.360;8.726;2022-09-09T09:55:48;99043.25;;;16.61;100.00
27984;BME280;15317;50.360;8.726;2022-09-09T10:00:01;99035.66;;;16.63;100.00
27984;BME280;15317;50.360;8.726;2022-09-09T10:04:14;99040.94;;;16.71;100.00
27984;BME280;15317;50.360;8.726;2022-09-09T10:08:20;99042.00;;;16.96;100.00
27984;BME280;15317;50.360;8.726;2022-09-09T10:12:30;99028.63;;;17.46;100.00
27984;BME280;15317;50.360;8.726;2022-09-09T10:16:46;99022.25;;;18.10;100.00
27984;BME280;15317;50.360;8.726;2022-09-09T10:20:59;99030.06;;;18.13;97.70
27984;BME280;15317;50.360;8.726;2022-09-09T10:25:21;99020.94;;;17.74;97.52
27984;BME280;15317;50.360;8.726;2022-09-09T10:29:35;99025.38;;;17.75;97.62
27984;BME280;15317;50.360;8.726;2022-09-09T10:33:49;99036.31;;;17.89;100.00
27984;BME280;15317;50.360;8.726;2022-09-09T10:38:14;99028.28;;;18.32;100.00
27984;BME280;15317;50.360;8.726;2022-09-09T10:42:21;99021.91;;;18.69;97.39
27984;BME280;15317;50.360;8.726;2022-09-09T10:46:34;99021.50;;;19.15;97.64
27984;BME280;15317;50.360;8.726;2022-09-09T10:50:51;99028.84;;;19.46;95.70
27984;BME280;15317;50.360;8.726;2022-09-09T10:54:56;99035.38;;;19.70;91.89
27984;BME280;15317;50.360;8.726;2022-09-09T10:59:05;99029.53;;;19.96;90.58
27984;BME280;15317;50.360;8.726;2022-09-09T11:03:14;99030.91;;;19.87;87.08
27984;BME280;15317;50.360;8.726;2022-09-09T11:07:25;99021.41;;;20.01;85.42
27984;BME280;15317;50.360;8.726;2022-09-09T11:11:32;99033.00;;;20.40;84.02
27984;BME280;15317;50.360;8.726;2022-09-09T11:15:41;99023.09;;;20.62;79.23
27984;BME280;15317;50.360;8.726;2022-09-09T11:19:45;99022.56;;;20.83;80.20
27984;BME280;15317;50.360;8.726;2022-09-09T11:23:51;99026.69;;;20.51;80.87
27984;BME280;15317;50.360;8.726;2022-09-09T11:28:05;99021.16;;;20.51;80.35
27984;BME280;15317;50.360;8.726;2022-09-09T11:37:08;99001.94;;;20.33;78.11
27984;BME280;15317;50.360;8.726;2022-09-09T11:41:14;99008.81;;;20.24;79.03
27984;BME280;15317;50.360;8.726;2022-09-09T11:45:23;99010.78;;;20.35;80.05
27984;BME280;15317;50.360;8.726;2022-09-09T11:49:29;99014.91;;;20.44;79.24
27984;BME280;15317;50.360;8.726;2022-09-09T11:53:48;99009.75;;;20.47;78.57
27984;BME280;15317;50.360;8.726;2022-09-09T11:57:57;99001.25;;;20.49;77.06
27984;BME280;15317;50.360;8.726;2022-09-09T12:02:00;99002.69;;;20.40;77.60
27984;BME280;15317;50.360;8.726;2022-09-09T12:06:15;99003.88;;;20.44;77.43
27984;BME280;15317;50.360;8.726;2022-09-09T12:10:22;99010.25;;;20.56;76.71
27984;BME280;15317;50.360;8.726;2022-09-09T12:14:35;99008.56;;;20.55;73.93
27984;BME280;15317;50.360;8.726;2022-09-09T12:18:38;98998.59;;;20.54;75.10
27984;BME280;15317;50.360;8.726;2022-09-09T12:22:55;99001.66;;;20.64;77.03
27984;BME280;15317;50.360;8.726;2022-09-09T12:27:06;99002.50;;;20.76;77.40
27984;BME280;15317;50.360;8.726;2022-09-09T12:31:15;99002.88;;;20.80;75.69
27984;BME280;15317;50.360;8.726;2022-09-09T12:35:23;99007.06;;;20.82;76.38
27984;BME280;15317;50.360;8.726;2022-09-09T12:39:32;99004.94;;;20.84;76.26
27984;BME280;15317;50.360;8.726;2022-09-09T12:43:36;98991.00;;;20.91;73.00
27984;BME280;15317;50.360;8.726;2022-09-09T12:47:41;98990.28;;;20.96;65.14
27984;BME280;15317;50.360;8.726;2022-09-09T12:51:46;98981.78;;;20.97;63.11
27984;BME280;15317;50.360;8.726;2022-09-09T12:55:52;98992.19;;;20.83;61.67
27984;BME280;15317;50.360;8.726;2022-09-09T13:00:05;98980.34;;;20.95;63.62
27984;BME280;15317;50.360;8.726;2022-09-09T13:04:19;98986.38;;;21.26;61.94
27984;BME280;15317;50.360;8.726;2022-09-09T13:08:22;98975.16;;;21.56;60.86
27984;BME280;15317;50.360;8.726;2022-09-09T13:12:27;98996.38;;;21.79;59.37
27984;BME280;15317;50.360;8.726;2022-09-09T13:16:30;98991.50;;;21.70;59.59
27984;BME280;15317;50.360;8.726;2022-09-09T13:20:33;98991.69;;;21.80;61.15
27984;BME280;15317;50.360;8.726;2022-09-09T13:24:35;98987.75;;;21.76;58.93
27984;BME280;15317;50.360;8.726;2022-09-09T13:28:39;98991.41;;;21.93;57.29
27984;BME280;15317;50.360;8.726;2022-09-09T13:32:41;98969.56;;;21.80;56.74
27984;BME280;15317;50.360;8.726;2022-09-09T13:36:47;98977.91;;;21.56;57.62
27984;BME280;15317;50.360;8.726;2022-09-09T13:40:58;98975.41;;;21.43;58.62
27984;BME280;15317;50.360;8.726;2022-09-09T13:45:04;98971.09;;;21.47;59.73
27984;BME280;15317;50.360;8.726;2022-09-09T13:49:19;98963.41;;;21.49;57.85
27984;BME280;15317;50.360;8.726;2022-09-09T13:53:22;98959.28;;;21.63;57.63
27984;BME280;15317;50.360;8.726;2022-09-09T13:57:25;98959.75;;;21.72;58.95
27984;BME280;15317;50.360;8.726;2022-09-09T14:01:29;98949.16;;;21.81;58.00
27984;BME280;15317;50.360;8.726;2022-09-09T14:05:32;98953.38;;;21.72;58.47
27984;BME280;15317;50.360;8.726;2022-09-09T14:09:35;98946.72;;;21.84;59.90
27984;BME280;15317;50.360;8.726;2022-09-09T14:13:37;98949.16;;;21.81;59.88
27984;BME280;15317;50.360;8.726;2022-09-09T14:17:41;98951.59;;;21.65;60.17
27984;BME280;15317;50.360;8.726;2022-09-09T14:21:43;98968.94;;;21.49;61.39
27984;BME280;15317;50.360;8.726;2022-09-09T14:25:45;98954.28;;;21.14;62.72
27984;BME280;15317;50.360;8.726;2022-09-09T14:29:47;98964.72;;;20.88;65.29
27984;BME280;15317;50.360;8.726;2022-09-09T14:33:51;98954.56;;;20.47;66.51
27984;BME280;15317;50.360;8.726;2022-09-09T14:37:53;98950.78;;;20.19;68.00
27984;BME280;15317;50.360;8.726;2022-09-09T14:41:57;98963.59;;;19.95;68.67
27984;BME280;15317;50.360;8.726;2022-09-09T14:46:04;98964.78;;;19.87;69.49
27984;BME280;15317;50.360;8.726;2022-09-09T14:50:08;98962.84;;;19.88;68.33
27984;BME280;15317;50.360;8.726;2022-09-09T14:54:10;98958.69;;;19.67;68.29
27984;BME280;15317;50.360;8.726;2022-09-09T14:58:12;98952.72;;;19.52;68.50
27984;BME280;15317;50.360;8.726;2022-09-09T15:02:15;98955.03;;;19.55;68.84
27984;BME280;15317;50.360;8.726;2022-09-09T15:06:19;98944.94;;;19.49;69.25
27984;BME280;15317;50.360;8.726;2022-09-09T15:10:22;98951.31;;;19.43;69.54
27984;BME280;15317;50.360;8.726;2022-09-09T15:14:24;98946.75;;;19.37;70.03
27984;BME280;15317;50.360;8.726;2022-09-09T15:22:36;98936.31;;;19.39;67.84
27984;BME280;15317;50.360;8.726;2022-09-09T15:26:38;98938.50;;;19.55;68.19
27984;BME280;15317;50.360;8.726;2022-09-09T15:30:40;98944.03;;;19.85;67.63
27984;BME280;15317;50.360;8.726;2022-09-09T15:34:42;98957.81;;;20.33;65.49
27984;BME280;15317;50.360;8.726;2022-09-09T15:38:46;98958.56;;;20.63;64.37
27984;BME280;15317;50.360;8.726;2022-09-09T15:42:48;98970.25;;;20.35;64.49
27984;BME280;15317;50.360;8.726;2022-09-09T15:46:51;98965.19;;;20.02;65.60
27984;BME280;15317;50.360;8.726;2022-09-09T15:51:01;98969.84;;;19.90;66.70
27984;BME280;15317;50.360;8.726;2022-09-09T15:55:06;98953.56;;;19.70;66.96
27984;BME280;15317;50.360;8.726;2022-09-09T15:59:09;98940.94;;;19.45;68.47
27984;BME280;15317;50.360;8.726;2022-09-09T16:03:12;98952.06;;;19.13;70.01
27984;BME280;15317;50.360;8.726;2022-09-09T16:07:14;98947.13;;;18.97;71.63
27984;BME280;15317;50.360;8.726;2022-09-09T16:11:19;98949.25;;;18.77;72.70
27984;BME280;15317;50.360;8.726;2022-09-09T16:15:22;98956.78;;;18.63;73.48
27984;BME280;15317;50.360;8.726;2022-09-09T16:19:24;98956.00;;;18.49;74.35
27984;BME280;15317;50.360;8.726;2022-09-09T16:23:27;98964.16;;;18.38;75.50
27984;BME280;15317;50.360;8.726;2022-09-09T16:27:30;98959.09;;;18.35;76.89
27984;BME280;15317;50.360;8.726;2022-09-09T16:31:33;98957.00;;;18.30;77.46
27984;BME280;15317;50.360;8.726;2022-09-09T16:35:36;98975.19;;;18.31;78.24
27984;BME280;15317;50.360;8.726;2022-09-09T16:39:39;98961.91;;;18.28;78.42
27984;BME280;15317;50.360;8.726;2022-09-09T16:43:43;98971.44;;;18.26;79.38
27984;BME280;15317;50.360;8.726;2022-09-09T16:47:45;98978.66;;;18.20;80.34
27984;BME280;15317;50.360;8.726;2022-09-09T16:51:50;98986.72;;;18.15;80.85
27984;BME280;15317;50.360;8.726;2022-09-09T16:55:53;98989.03;;;18.18;83.00
27984;BME280;15317;50.360;8.726;2022-09-09T16:59:57;98983.38;;;18.06;85.82
27984;BME280;15317;50.360;8.726;2022-09-09T17:04:02;98990.16;;;18.04;86.08
27984;BME280;15317;50.360;8.726;2022-09-09T17:08:04;98993.59;;;17.93;87.24
27984;BME280;15317;50.360;8.726;2022-09-09T17:12:07;98993.19;;;17.89;89.28
27984;BME280;15317;50.360;8.726;2022-09-09T17:16:12;98994.69;;;17.85;89.42
27984;BME280;15317;50.360;8.726;2022-09-09T17:20:14;98994.53;;;17.80;89.95
27984;BME280;15317;50.360;8.726;2022-09-09T17:24:17;98998.97;;;17.74;91.34
27984;BME280;15317;50.360;8.726;2022-09-09T17:28:19;99003.41;;;17.75;91.54
27984;BME280;15317;50.360;8.726;2022-09-09T17:32:27;99006.34;;;17.81;91.04
27984;BME280;15317;50.360;8.726;2022-09-09T17:36:31;99005.09;;;17.76;91.40
27984;BME280;15317;50.360;8.726;2022-09-09T17:40:34;99012.69;;;17.74;91.39
27984;BME280;15317;50.360;8.726;2022-09-09T17:44:36;99017.38;;;17.74;92.20
27984;BME280;15317;50.360;8.726;2022-09-09T17:48:41;99010.59;;;17.70;91.75
27984;BME280;15317;50.360;8.726;2022-09-09T17:52:44;99008.09;;;17.62;91.73
27984;BME280;15317;50.360;8.726;2022-09-09T17:56:47;99011.47;;;17.57;92.33
27984;BME280;15317;50.360;8.726;2022-09-09T18:00:49;99020.38;;;17.53;91.52
27984;BME280;15317;50.360;8.726;2022-09-09T18:04:53;99017.38;;;17.54;90.15
27984;BME280;15317;50.360;8.726;2022-09-09T18:08:57;99017.84;;;17.51;91.02
27984;BME280;15317;50.360;8.726;2022-09-09T18:13:00;99020.38;;;17.46;90.59
27984;BME280;15317;50.360;8.726;2022-09-09T18:17:03;99027.97;;;17.44;90.22
27984;BME280;15317;50.360;8.726;2022-09-09T18:21:07;99018.69;;;17.45;89.37
27984;BME280;15317;50.360;8.726;2022-09-09T18:25:09;99021.22;;;17.40;89.39
27984;BME280;15317;50.360;8.726;2022-09-09T18:29:14;99023.97;;;17.33;89.13
27984;BME280;15317;50.360;8.726;2022-09-09T18:33:17;99018.72;;;17.32;88.35
27984;BME280;15317;50.360;8.726;2022-09-09T18:37:21;99025.06;;;17.26;89.57
27984;BME280;15317;50.360;8.726;2022-09-09T18:41:25;99033.94;;;17.15;89.77
27984;BME280;15317;50.360;8.726;2022-09-09T18:45:27;99041.97;;;17.10;91.14
27984;BME280;15317;50.360;8.726;2022-09-09T18:49:29;99048.94;;;17.12;90.99
27984;BME280;15317;50.360;8.726;2022-09-09T18:53:35;99051.25;;;17.09;91.27
27984;BME280;15317;50.360;8.726;2022-09-09T18:57:37;99061.38;;;17.15;91.49
27984;BME280;15317;50.360;8.726;2022-09-09T19:01:39;99058.84;;;17.13;90.90
27984;BME280;15317;50.360;8.726;2022-09-09T19:05:42;99059.28;;;17.17;90.43
27984;BME280;15317;50.360;8.726;2022-09-09T19:09:45;99062.66;;;17.19;91.24
27984;BME280;15317;50.360;8.726;2022-09-09T19:13:49;99068.16;;;17.12;93.94
27984;BME280;15317;50.360;8.726;2022-09-09T19:17:54;99074.47;;;17.06;94.27
27984;BME280;15317;50.360;8.726;2022-09-09T19:21:56;99070.06;;;16.98;95.07
27984;BME280;15317;50.360;8.726;2022-09-09T19:26:02;99075.75;;;16.90;96.51
27984;BME280;15317;50.360;8.726;2022-09-09T19:30:07;99070.69;;;16.87;96.48
27984;BME280;15317;50.360;8.726;2022-09-09T19:34:09;99066.47;;;16.78;95.46
27984;BME280;15317;50.360;8.726;2022-09-09T19:38:12;99076.59;;;16.71;96.51
27984;BME280;15317;50.360;8.726;2022-09-09T19:42:15;99079.94;;;16.67;97.12
27984;BME280;15317;50.360;8.726;2022-09-09T19:46:17;99079.94;;;16.60;97.19
27984;BME280;15317;50.360;8.726;2022-09-09T19:50:19;99082.81;;;16.45;98.58
27984;BME280;15317;50.360;8.726;2022-09-09T19:54:21;99083.03;;;16.37;100.00
27984;BME280;15317;50.360;8.726;2022-09-09T19:58:25;99082.78;;;16.32;100.00
27984;BME280;15317;50.360;8.726;2022-09-09T20:02:27;99086.97;;;16.22;100.00
27984;BME280;15317;50.360;8.726;2022-09-09T20:06:31;99085.66;;;16.11;100.00
27984;BME280;15317;50.360;8.726;2022-09-09T20:10:34;99081.69;;;16.13;100.00
27984;BME280;15317;50.360;8.726;2022-09-09T20:14:37;99083.97;;;16.03;100.00
27984;BME280;15317;50.360;8.726;2022-09-09T20:18:42;99090.50;;;16.02;100.00
27984;BME280;15317;50.360;8.726;2022-09-09T20:22:45;99080.56;;;15.95;100.00
27984;BME280;15317;50.360;8.726;2022-09-09T20:26:47;99067.03;;;15.87;100.00
27984;BME280;15317;50.360;8.726;2022-09-09T20:30:50;99074.19;;;15.81;100.00
27984;BME280;15317;50.360;8.726;2022-09-09T20:34:52;99089.31;;;15.77;100.00
27984;BME280;15317;50.360;8.726;2022-09-09T20:38:56;99077.72;;;15.75;100.00
27984;BME280;15317;50.360;8.726;2022-09-09T20:42:58;99085.41;;;15.58;100.00
27984;BME280;15317;50.360;8.726;2022-09-09T20:47:02;99095.03;;;15.48;100.00
27984;BME280;15317;50.360;8.726;2022-09-09T20:51:06;99096.69;;;15.42;100.00
27984;BME280;15317;50.360;8.726;2022-09-09T20:55:10;99091.97;;;15.36;100.00
27984;BME280;15317;50.360;8.726;2022-09-09T20:59:14;99093.25;;;15.33;100.00
27984;BME280;15317;50.360;8.726;2022-09-09T21:03:18;99103.47;;;15.25;100.00
27984;BME280;15317;50.360;8.726;2022-09-09T21:07:20;99091.41;;;15.13;100.00
27984;BME280;15317;50.360;8.726;2022-09-09T21:11:22;99089.25;;;15.08;100.00
27984;BME280;15317;50.360;8.726;2022-09-09T21:15:24;99090.19;;;14.94;100.00
27984;BME280;15317;50.360;8.726;2022-09-09T21:19:27;99100.88;;;14.89;100.00
27984;BME280;15317;50.360;8.726;2022-09-09T21:23:29;99108.75;;;14.77;100.00
27984;BME280;15317;50.360;8.726;2022-09-09T21:27:32;99103.22;;;14.71;100.00
27984;BME280;15317;50.360;8.726;2022-09-09T21:31:34;99108.81;;;14.62;100.00
27984;BME280;15317;50.360;8.726;2022-09-09T21:35:39;99111.66;;;14.54;100.00
27984;BME280;15317;50.360;8.726;2022-09-09T21:39:41;99111.81;;;14.46;100.00